Time;durP1;ratioP1;P1;durP2;ratioP2;P2;SDS_P1;SDS_P2;PMS_P1;PMS_P2;Temp;Humidity;BMP_temperature;BMP_pressure;BME280_temperature;BME280_humidity;BME280_pressure;Samples;Min_cycle;Max_cycle;Signal;HPM_P1;HPM_P2
2024/04/20 00:00:12;;;;;;;0.37;0.37;;;4.40;99.90;;;;;;5452889;26;20638;-64
2024/04/20 00:02:38;;;;;;;0.40;0.40;;;4.40;99.90;;;;;;5453034;26;20610;-64
2024/04/20 00:05:04;;;;;;;0.63;0.63;;;4.40;99.90;;;;;;5452691;26;20218;-64
2024/04/20 00:07:30;;;;;;;0.45;0.40;;;4.30;99.90;;;;;;5452516;26;20747;-64
2024/04/20 00:09:57;;;;;;;0.63;0.63;;;4.30;99.90;;;;;;5452745;26;20211;-64
2024/04/20 00:12:23;;;;;;;0.50;0.50;;;4.20;99.90;;;;;;5452196;26;20330;-64
2024/04/20 00:14:50;;;;;;;1.08;0.80;;;4.30;99.90;;;;;;5452057;26;20798;-64
2024/04/20 00:17:16;;;;;;;0.63;0.60;;;4.30;99.90;;;;;;5452699;26;20228;-64
2024/04/20 00:19:41;;;;;;;0.50;0.50;;;4.30;99.90;;;;;;5452459;26;20257;-64
2024/04/20 00:22:07;;;;;;;0.40;0.40;;;4.30;99.90;;;;;;5451834;26;20444;-64
2024/04/20 00:24:33;;;;;;;0.50;0.50;;;4.40;99.90;;;;;;5452384;26;20218;-64
2024/04/20 00:26:58;;;;;;;1.00;0.90;;;4.40;99.90;;;;;;5452754;26;20280;-64
2024/04/20 00:29:24;;;;;;;0.87;0.70;;;4.40;99.90;;;;;;5452401;26;20743;-65
2024/04/20 00:31:49;;;;;;;1.00;0.90;;;4.40;99.90;;;;;;5452203;26;20707;-64
2024/04/20 00:34:15;;;;;;;1.03;1.03;;;4.40;99.90;;;;;;5452151;26;20314;-64
2024/04/20 00:36:41;;;;;;;1.10;1.10;;;4.40;99.90;;;;;;5452148;26;20218;-64
2024/04/20 00:39:06;;;;;;;1.43;1.33;;;4.40;99.90;;;;;;5451977;26;20256;-65
2024/04/20 00:41:32;;;;;;;1.87;1.63;;;4.50;99.90;;;;;;5451942;26;20222;-64
2024/04/20 00:43:58;;;;;;;4.53;1.00;;;4.40;99.90;;;;;;5452100;26;20461;-63
2024/04/20 00:46:26;;;;;;;2.37;1.60;;;4.30;99.90;;;;;;5452022;26;20214;-64
2024/04/20 00:48:54;;;;;;;1.10;1.00;;;4.40;99.90;;;;;;5454236;26;20210;-64
2024/04/20 00:51:21;;;;;;;1.67;1.58;;;4.50;99.90;;;;;;5455293;26;20230;-64
2024/04/20 00:53:51;;;;;;;13.60;1.45;;;4.40;99.90;;;;;;5455322;26;20721;-64
2024/04/20 00:56:18;;;;;;;2.17;1.90;;;4.40;99.90;;;;;;5455409;26;20317;-64
2024/04/20 00:58:46;;;;;;;2.90;1.95;;;4.50;99.90;;;;;;5455445;26;20253;-64
2024/04/20 01:01:12;;;;;;;1.98;1.83;;;4.50;99.90;;;;;;5455212;26;20260;-63
2024/04/20 01:03:37;;;;;;;1.85;1.75;;;4.50;99.90;;;;;;5455127;26;20231;-64
2024/04/20 01:06:03;;;;;;;2.03;1.93;;;4.40;99.90;;;;;;5455125;26;20762;-64
2024/04/20 01:08:30;;;;;;;2.23;2.07;;;4.40;99.90;;;;;;5455789;26;20249;-64
2024/04/20 01:10:57;;;;;;;1.88;1.73;;;4.50;99.90;;;;;;5455254;26;20519;-64
2024/04/20 01:13:26;;;;;;;4.13;1.98;;;4.50;99.90;;;;;;5455187;26;20226;-64
2024/04/20 01:15:52;;;;;;;3.22;1.88;;;4.50;99.90;;;;;;5455188;26;20214;-64
2024/04/20 01:18:18;;;;;;;2.33;2.00;;;4.50;99.90;;;;;;5455066;26;20826;-63
2024/04/20 01:20:43;;;;;;;4.33;2.40;;;4.50;99.90;;;;;;5454721;26;20218;-64
2024/04/20 01:23:09;;;;;;;2.53;1.60;;;4.40;99.90;;;;;;5455278;26;20237;-64
2024/04/20 01:25:41;;;;;;;3.23;3.03;;;4.40;99.90;;;;;;5454823;26;20310;-64
2024/04/20 01:28:07;;;;;;;2.47;1.90;;;4.40;99.90;;;;;;5454770;26;20598;-64
2024/04/20 01:30:32;;;;;;;3.30;1.40;;;4.40;99.90;;;;;;5454435;26;20218;-64
2024/04/20 01:32:58;;;;;;;3.60;1.60;;;4.40;99.90;;;;;;5454715;26;20834;-64
2024/04/20 01:35:24;;;;;;;2.40;1.83;;;4.40;99.90;;;;;;5454747;26;20788;-64
2024/04/20 01:37:50;;;;;;;1.40;1.30;;;4.40;99.90;;;;;;5454414;26;20558;-63
2024/04/20 01:40:15;;;;;;;2.33;1.70;;;4.30;99.90;;;;;;5454149;26;20245;-65
2024/04/20 01:42:41;;;;;;;1.93;1.83;;;4.20;99.90;;;;;;5454181;26;20238;-64
2024/04/20 01:45:07;;;;;;;1.30;1.20;;;3.90;99.90;;;;;;5454444;26;20217;-64
2024/04/20 01:47:32;;;;;;;1.57;1.20;;;3.80;99.90;;;;;;5454350;26;20323;-64
2024/04/20 01:49:58;;;;;;;1.77;1.67;;;3.90;99.90;;;;;;5454455;26;20620;-64
2024/04/20 01:52:24;;;;;;;1.00;1.00;;;4.10;99.90;;;;;;5454324;26;20234;-64
2024/04/20 01:54:49;;;;;;;2.83;1.40;;;4.10;99.90;;;;;;5454339;26;20253;-64
2024/04/20 01:57:15;;;;;;;1.70;1.60;;;4.00;99.90;;;;;;5454026;26;20214;-64
2024/04/20 01:59:40;;;;;;;1.40;1.30;;;4.00;99.90;;;;;;5453619;26;20214;-64
2024/04/20 02:02:06;;;;;;;1.07;0.90;;;4.10;99.90;;;;;;5453770;26;20253;-64
2024/04/20 02:04:32;;;;;;;2.67;1.60;;;4.00;99.90;;;;;;5453931;26;20215;-64
2024/04/20 02:06:57;;;;;;;5.03;1.53;;;4.10;99.90;;;;;;5454217;26;20610;-64
2024/04/20 02:09:24;;;;;;;1.33;1.23;;;4.10;99.90;;;;;;5454539;26;20214;-64
2024/04/20 02:11:50;;;;;;;1.55;1.45;;;4.20;99.90;;;;;;5454517;26;20634;-64
2024/04/20 02:14:15;;;;;;;4.20;2.63;;;4.20;99.90;;;;;;5454463;26;20226;-64
2024/04/20 02:16:41;;;;;;;1.37;1.23;;;4.20;99.90;;;;;;5453809;26;20214;-64
2024/04/20 02:19:06;;;;;;;1.80;1.70;;;4.20;99.90;;;;;;5453885;26;20214;-64
2024/04/20 02:21:32;;;;;;;2.33;2.23;;;4.20;99.90;;;;;;5453694;26;20214;-64
2024/04/20 02:23:58;;;;;;;3.07;1.90;;;4.20;99.90;;;;;;5454022;26;20222;-64
2024/04/20 02:26:23;;;;;;;1.50;1.40;;;4.30;99.90;;;;;;5453983;26;20210;-64
2024/04/20 02:28:49;;;;;;;2.43;1.83;;;4.40;99.90;;;;;;5453697;26;20585;-64
2024/04/20 02:31:15;;;;;;;4.37;1.40;;;4.40;99.90;;;;;;5453356;26;20299;-64
2024/04/20 02:33:40;;;;;;;3.90;1.43;;;4.30;99.90;;;;;;5453808;26;20226;-64
2024/04/20 02:36:07;;;;;;;1.90;1.80;;;4.40;99.90;;;;;;5453680;26;20259;-64
2024/04/20 02:38:32;;;;;;;1.88;1.70;;;4.30;99.90;;;;;;5453802;26;20258;-64
2024/04/20 02:40:59;;;;;;;2.73;1.57;;;4.20;99.90;;;;;;5453210;26;20313;-64
2024/04/20 02:43:25;;;;;;;1.17;1.10;;;4.00;99.90;;;;;;5422205;26;20246;-64
2024/04/20 02:45:50;;;;;;;3.00;1.50;;;4.10;99.90;;;;;;5453434;26;20287;-64
2024/04/20 02:48:16;;;;;;;3.07;1.60;;;4.20;99.90;;;;;;5453535;26;20223;-65
2024/04/20 02:50:42;;;;;;;2.00;1.47;;;4.30;99.90;;;;;;5453262;26;20257;-64
2024/04/20 02:53:07;;;;;;;1.73;1.63;;;4.20;99.90;;;;;;5452151;26;20763;-64
2024/04/20 02:55:33;;;;;;;2.23;2.13;;;4.20;99.90;;;;;;5453329;26;20219;-64
2024/04/20 02:57:59;;;;;;;3.53;1.63;;;4.20;99.90;;;;;;5422157;26;20211;-64
2024/04/20 03:00:25;;;;;;;2.33;1.17;;;4.20;99.90;;;;;;5452877;26;20260;-64
2024/04/20 03:02:53;;;;;;;1.53;1.20;;;4.20;99.90;;;;;;5453446;26;20692;-64
2024/04/20 03:05:19;;;;;;;1.10;1.00;;;4.30;99.90;;;;;;5453521;26;20246;-64
2024/04/20 03:07:45;;;;;;;3.90;2.17;;;4.40;99.90;;;;;;5453618;26;20210;-65
2024/04/20 03:10:10;;;;;;;1.50;1.40;;;4.30;99.90;;;;;;5452173;26;20448;-64
2024/04/20 03:12:36;;;;;;;2.20;2.10;;;4.10;99.90;;;;;;5452606;26;20580;-64
2024/04/20 03:15:02;;;;;;;2.30;1.67;;;4.00;99.90;;;;;;5421586;26;20692;-64
2024/04/20 03:17:27;;;;;;;4.73;1.70;;;3.90;99.90;;;;;;5453307;26;20252;-64
2024/04/20 03:19:53;;;;;;;1.73;1.63;;;3.90;99.90;;;;;;5453169;26;20214;-64
2024/04/20 03:22:20;;;;;;;1.70;1.60;;;3.90;99.90;;;;;;5453074;26;20629;-64
2024/04/20 03:24:46;;;;;;;1.98;1.80;;;3.90;99.90;;;;;;5453161;26;20431;-64
2024/04/20 03:27:11;;;;;;;2.60;1.73;;;4.00;99.90;;;;;;5453074;26;20219;-64
2024/04/20 03:29:37;;;;;;;1.37;1.27;;;4.00;99.90;;;;;;5452978;26;20211;-64
2024/04/20 03:32:03;;;;;;;1.53;1.30;;;4.00;99.90;;;;;;5452916;26;20218;-64
2024/04/20 03:34:28;;;;;;;2.40;1.10;;;4.20;99.90;;;;;;5453319;26;20594;-64
2024/04/20 03:36:55;;;;;;;2.00;1.60;;;4.30;99.90;;;;;;5453003;26;20437;-64
2024/04/20 03:39:22;;;;;;;4.47;2.13;;;4.40;99.90;;;;;;5452889;26;20286;-65
2024/04/20 03:41:48;;;;;;;3.15;1.92;;;4.40;99.90;;;;;;5421047;26;20329;-65
2024/04/20 03:44:14;;;;;;;2.40;1.90;;;4.30;99.90;;;;;;5452996;26;20234;-64
2024/04/20 03:46:40;;;;;;;6.18;2.30;;;4.40;99.90;;;;;;5421394;26;20229;-63
2024/04/20 03:49:05;;;;;;;4.40;1.90;;;4.40;99.90;;;;;;5452871;26;20303;-64
2024/04/20 03:51:32;;;;;;;1.80;1.20;;;4.40;99.90;;;;;;5453323;26;20214;-64
2024/04/20 03:53:59;;;;;;;12.85;2.60;;;4.30;99.90;;;;;;5453013;26;20555;-64
2024/04/20 03:56:27;;;;;;;4.13;2.00;;;4.20;99.90;;;;;;5421853;26;20222;-64
2024/04/20 03:58:53;;;;;;;7.30;2.65;;;4.10;99.90;;;;;;5452686;26;20633;-64
2024/04/20 04:01:18;;;;;;;1.70;1.07;;;4.10;99.90;;;;;;5452589;26;20764;-64
2024/04/20 04:03:44;;;;;;;6.27;1.60;;;4.20;99.90;;;;;;5452500;26;20708;-64
2024/04/20 04:06:10;;;;;;;1.17;1.07;;;4.20;99.90;;;;;;5453041;26;20218;-64
2024/04/20 04:08:35;;;;;;;2.87;1.80;;;4.10;99.90;;;;;;5452698;26;20211;-64
2024/04/20 04:11:01;;;;;;;1.77;1.67;;;4.10;99.90;;;;;;5452380;26;20210;-64
2024/04/20 04:13:26;;;;;;;1.53;1.40;;;4.10;99.90;;;;;;5452976;26;20222;-64
2024/04/20 04:15:53;;;;;;;2.43;1.80;;;4.00;99.90;;;;;;5452777;26;20619;-64
2024/04/20 04:18:21;;;;;;;2.38;1.13;;;4.10;99.90;;;;;;5452854;26;20258;-63
2024/04/20 04:20:47;;;;;;;1.60;1.17;;;4.20;99.90;;;;;;5452059;26;20222;-64
2024/04/20 04:23:12;;;;;;;1.88;1.77;;;4.20;99.90;;;;;;5451970;26;20338;-64
2024/04/20 04:25:38;;;;;;;1.60;1.50;;;4.10;99.90;;;;;;5452581;26;20222;-64
2024/04/20 04:28:04;;;;;;;3.33;1.27;;;4.00;99.90;;;;;;5452253;26;20654;-64
2024/04/20 04:30:31;;;;;;;1.57;1.30;;;4.10;99.90;;;;;;5452359;26;20630;-64
2024/04/20 04:32:57;;;;;;;7.35;1.70;;;4.20;99.90;;;;;;5452409;26;20460;-64
2024/04/20 04:35:22;;;;;;;3.10;1.30;;;4.20;99.90;;;;;;5452562;26;20765;-64
2024/04/20 04:37:48;;;;;;;3.13;1.63;;;4.30;99.90;;;;;;5452291;26;20270;-64
2024/04/20 04:40:14;;;;;;;12.03;1.67;;;4.20;99.90;;;;;;5451898;26;20265;-64
2024/04/20 04:42:40;;;;;;;2.53;1.20;;;4.20;99.90;;;;;;5452501;26;20511;-64
2024/04/20 04:45:06;;;;;;;1.67;1.53;;;4.30;99.90;;;;;;5452453;26;20260;-64
2024/04/20 04:47:32;;;;;;;1.88;1.45;;;4.40;99.90;;;;;;5451828;26;20274;-64
2024/04/20 04:49:58;;;;;;;4.30;2.37;;;4.30;99.80;;;;;;5452505;26;20222;-64
2024/04/20 04:52:23;;;;;;;1.10;1.00;;;4.20;99.90;;;;;;5451674;26;20269;-65
2024/04/20 04:54:49;;;;;;;1.23;0.97;;;4.20;99.90;;;;;;5451934;26;20762;-64
2024/04/20 04:57:15;;;;;;;4.20;2.10;;;4.30;99.90;;;;;;5452085;26;20277;-64
2024/04/20 04:59:40;;;;;;;1.47;1.30;;;4.30;99.90;;;;;;5452245;26;20253;-64
2024/04/20 05:02:06;;;;;;;3.20;1.37;;;4.40;99.90;;;;;;5451932;26;20757;-65
2024/04/20 05:04:31;;;;;;;4.00;1.43;;;4.50;99.90;;;;;;5451993;26;20382;-64
2024/04/20 05:06:59;;;;;;;1.13;0.90;;;4.70;99.90;;;;;;5451927;26;20218;-64
2024/04/20 05:09:25;;;;;;;6.57;4.05;;;4.70;99.80;;;;;;5451591;26;20274;-64
2024/04/20 05:11:51;;;;;;;2.30;2.10;;;4.80;99.40;;;;;;5451477;26;20596;-64
2024/04/20 05:14:17;;;;;;;1.42;1.20;;;4.90;99.30;;;;;;5452019;26;20231;-64
2024/04/20 05:16:42;;;;;;;3.33;1.10;;;4.90;99.00;;;;;;5451754;26;20218;-64
2024/04/20 05:19:08;;;;;;;3.53;1.90;;;4.90;99.10;;;;;;5451458;26;20640;-65
2024/04/20 05:21:34;;;;;;;1.67;1.50;;;5.00;98.80;;;;;;5451893;26;20700;-64
2024/04/20 05:24:00;;;;;;;2.37;1.53;;;5.00;98.50;;;;;;5451487;26;20331;-64
2024/04/20 05:26:28;;;;;;;1.33;1.23;;;5.00;98.60;;;;;;5451443;26;20214;-64
2024/04/20 05:28:54;;;;;;;1.42;1.33;;;4.80;98.40;;;;;;5451706;26;20260;-64
2024/04/20 05:31:19;;;;;;;8.23;1.53;;;4.80;98.60;;;;;;5451138;26;20219;-64
2024/04/20 05:33:45;;;;;;;2.43;1.30;;;4.80;98.40;;;;;;5451899;26;20984;-64
2024/04/20 05:36:12;;;;;;;1.35;1.25;;;4.80;98.30;;;;;;5454648;26;20814;-64
2024/04/20 05:38:38;;;;;;;1.73;1.27;;;4.90;98.50;;;;;;5454870;26;20270;-64
2024/04/20 05:41:04;;;;;;;1.35;1.08;;;5.00;98.60;;;;;;5454405;26;20219;-64
2024/04/20 05:43:30;;;;;;;1.55;1.45;;;5.00;98.50;;;;;;5454815;26;20611;-64
2024/04/20 05:45:56;;;;;;;15.03;2.90;;;5.10;98.30;;;;;;5454903;26;20207;-64
2024/04/20 05:48:22;;;;;;;1.10;1.00;;;5.00;97.50;;;;;;5454919;26;20471;-64
2024/04/20 05:50:47;;;;;;;2.50;1.40;;;5.10;97.70;;;;;;5454216;26;20326;-64
2024/04/20 05:53:13;;;;;;;1.33;1.23;;;5.20;97.90;;;;;;5454661;26;20227;-64
2024/04/20 05:55:40;;;;;;;2.13;1.30;;;5.20;98.00;;;;;;5454687;26;20212;-64
2024/04/20 05:58:06;;;;;;;1.20;1.15;;;5.40;98.00;;;;;;5454506;26;20712;-64
2024/04/20 06:00:32;;;;;;;1.60;1.23;;;5.50;97.40;;;;;;5454421;26;20310;-64
2024/04/20 06:02:57;;;;;;;2.20;1.30;;;5.60;97.80;;;;;;5454556;26;20367;-64
2024/04/20 06:05:23;;;;;;;1.10;1.00;;;5.60;97.20;;;;;;5454610;26;20252;-64
2024/04/20 06:07:48;;;;;;;1.00;1.00;;;5.70;97.20;;;;;;5454535;26;20215;-64
2024/04/20 06:10:14;;;;;;;0.70;0.70;;;5.50;97.00;;;;;;5454158;26;20588;-65
2024/04/20 06:12:40;;;;;;;2.70;0.60;;;5.40;97.10;;;;;;5454499;26;20286;-64
2024/04/20 06:15:07;;;;;;;1.17;1.07;;;5.30;97.60;;;;;;5454766;26;20215;-64
2024/04/20 06:17:33;;;;;;;1.20;0.70;;;5.30;98.00;;;;;;5454617;26;20601;-64
2024/04/20 06:19:59;;;;;;;0.60;0.60;;;5.30;98.10;;;;;;5454409;26;20224;-64
2024/04/20 06:22:24;;;;;;;2.60;1.13;;;5.30;98.00;;;;;;5454246;26;20584;-64
2024/04/20 06:24:53;;;;;;;1.60;0.60;;;5.30;98.10;;;;;;5454322;26;20705;-64
2024/04/20 06:27:23;;;;;;;1.02;0.77;;;5.40;98.10;;;;;;5454676;26;20222;-64
2024/04/20 06:29:49;;;;;;;2.13;1.00;;;5.10;98.10;;;;;;5454244;26;20210;-64
2024/04/20 06:32:14;;;;;;;1.08;0.70;;;4.80;98.50;;;;;;5454063;26;20812;-64
2024/04/20 06:34:40;;;;;;;1.03;1.00;;;4.60;99.10;;;;;;5454357;26;20226;-64
2024/04/20 06:37:09;;;;;;;0.87;0.87;;;4.50;99.30;;;;;;5454256;26;20440;-64
2024/04/20 06:39:35;;;;;;;0.95;0.70;;;4.60;99.80;;;;;;5453674;26;20311;-64
2024/04/20 06:42:01;;;;;;;0.67;0.63;;;4.70;99.50;;;;;;5453489;26;20615;-64
2024/04/20 06:44:27;;;;;;;2.15;1.15;;;4.80;99.80;;;;;;5454028;26;20461;-64
2024/04/20 06:46:54;;;;;;;0.70;0.60;;;5.00;99.60;;;;;;5454278;26;20315;-64
2024/04/20 06:49:20;;;;;;;0.77;0.70;;;5.10;99.20;;;;;;5453975;26;20219;-64
2024/04/20 06:51:46;;;;;;;1.90;1.27;;;5.20;99.20;;;;;;5453958;26;20282;-64
2024/04/20 06:54:11;;;;;;;1.03;1.00;;;5.30;99.20;;;;;;5453696;26;20626;-64
2024/04/20 06:56:37;;;;;;;1.23;1.23;;;5.50;98.80;;;;;;5454038;26;20694;-64
2024/04/20 06:59:02;;;;;;;2.03;1.47;;;5.60;98.30;;;;;;5453814;26;20257;-64
2024/04/20 07:01:28;;;;;;;1.37;1.13;;;5.70;98.20;;;;;;5453614;26;20606;-64
2024/04/20 07:03:53;;;;;;;0.83;0.83;;;5.70;98.30;;;;;;5453432;26;20228;-64
2024/04/20 07:06:19;;;;;;;2.17;0.93;;;5.60;98.30;;;;;;5453470;26;20212;-64
2024/04/20 07:08:45;;;;;;;1.07;0.60;;;5.70;98.70;;;;;;5453479;26;20694;-64
2024/04/20 07:11:12;;;;;;;1.10;1.10;;;5.90;98.60;;;;;;5453535;26;20262;-64
2024/04/20 07:13:39;;;;;;;0.90;0.90;;;6.00;98.40;;;;;;5453516;26;20229;-64
2024/04/20 07:16:05;;;;;;;1.50;0.80;;;6.20;98.10;;;;;;5453486;26;20703;-64
2024/04/20 07:18:31;;;;;;;0.80;0.80;;;6.30;98.10;;;;;;5453638;26;20252;-64
2024/04/20 07:21:04;;;;;;;1.23;1.20;;;6.50;97.80;;;;;;5453039;26;20218;-64
2024/04/20 07:23:30;;;;;;;0.80;0.80;;;6.70;97.50;;;;;;5453195;26;20515;-64
2024/04/20 07:26:06;;;;;;;4.15;1.83;;;6.90;97.20;;;;;;5453352;26;20226;-65
2024/04/20 07:28:33;;;;;;;0.95;0.90;;;6.90;96.80;;;;;;5453410;26;20210;-64
2024/04/20 07:30:58;;;;;;;0.60;0.60;;;6.90;96.50;;;;;;5452908;26;20222;-63
2024/04/20 07:33:24;;;;;;;0.70;0.70;;;6.80;95.90;;;;;;5453095;26;20260;-65
2024/04/20 07:35:50;;;;;;;0.50;0.50;;;6.70;96.10;;;;;;5452974;26;20269;-64
2024/04/20 07:38:16;;;;;;;0.80;0.70;;;6.70;96.40;;;;;;5453280;26;20550;-65
2024/04/20 07:40:42;;;;;;;0.87;0.87;;;6.70;96.60;;;;;;5452504;26;20252;-64
2024/04/20 07:43:08;;;;;;;2.05;0.93;;;6.80;95.70;;;;;;5452882;26;20277;-65
2024/04/20 07:45:34;;;;;;;0.60;0.60;;;6.90;96.00;;;;;;5452879;26;20556;-64
2024/04/20 07:48:00;;;;;;;0.70;0.57;;;7.00;96.00;;;;;;5452557;26;20339;-64
2024/04/20 07:50:26;;;;;;;3.00;1.00;;;7.00;95.50;;;;;;5452569;26;20226;-64
2024/04/20 07:52:52;;;;;;;0.80;0.60;;;6.90;95.70;;;;;;5452616;26;20223;-64
2024/04/20 07:55:18;;;;;;;0.77;0.60;;;6.90;96.00;;;;;;5452803;26;20314;-64
2024/04/20 07:57:46;;;;;;;1.05;0.75;;;7.10;96.20;;;;;;5451727;26;20428;-64
2024/04/20 08:00:13;;;;;;;0.55;0.55;;;7.30;95.80;;;;;;5452297;26;20306;-65
2024/04/20 08:02:39;;;;;;;0.40;0.40;;;7.70;96.00;;;;;;5452210;26;20297;-64
2024/04/20 08:05:06;;;;;;;0.47;0.47;;;8.20;95.70;;;;;;5452222;26;20306;-64
2024/04/20 08:07:32;;;;;;;0.40;0.40;;;8.60;95.00;;;;;;5452320;26;20230;-64
2024/04/20 08:09:58;;;;;;;0.30;0.30;;;8.50;92.80;;;;;;5452576;26;20263;-65
2024/04/20 08:12:23;;;;;;;0.33;0.33;;;8.60;93.40;;;;;;5452086;26;20759;-65
2024/04/20 08:14:49;;;;;;;0.40;0.40;;;8.80;93.20;;;;;;5452570;26;20257;-64
2024/04/20 08:17:14;;;;;;;0.40;0.40;;;8.80;92.30;;;;;;5452574;26;20301;-64
2024/04/20 08:19:40;;;;;;;0.40;0.40;;;8.70;92.10;;;;;;5452480;26;20659;-64
2024/04/20 08:22:06;;;;;;;0.40;0.40;;;8.60;92.60;;;;;;5452098;26;20214;-64
2024/04/20 08:24:32;;;;;;;1.07;0.70;;;8.80;93.10;;;;;;5451994;26;20739;-64
2024/04/20 08:26:58;;;;;;;0.50;0.50;;;9.00;91.70;;;;;;5452475;26;20223;-64
2024/04/20 08:29:25;;;;;;;0.40;0.40;;;9.10;91.50;;;;;;5452080;26;20211;-65
2024/04/20 08:31:51;;;;;;;1.02;0.50;;;9.20;91.00;;;;;;5451938;26;20210;-65
2024/04/20 08:34:16;;;;;;;0.40;0.40;;;9.30;91.50;;;;;;5452080;26;20343;-64
2024/04/20 08:36:44;;;;;;;0.50;0.50;;;9.50;91.00;;;;;;5451804;26;20292;-65
2024/04/20 08:39:09;;;;;;;0.65;0.50;;;9.70;91.30;;;;;;5451639;26;20222;-64
2024/04/20 08:41:38;;;;;;;0.30;0.30;;;9.70;90.70;;;;;;5451688;26;20256;-65
2024/04/20 08:44:05;;;;;;;0.50;0.50;;;9.50;90.50;;;;;;5452252;26;20222;-64
2024/04/20 08:46:31;;;;;;;0.37;0.37;;;9.50;91.40;;;;;;5451779;26;20503;-64
2024/04/20 08:48:59;;;;;;;0.57;0.57;;;9.70;90.70;;;;;;5451983;26;20957;-65
2024/04/20 08:51:25;;;;;;;0.63;0.63;;;9.60;90.00;;;;;;5451572;26;20750;-65
2024/04/20 08:53:54;;;;;;;0.50;0.50;;;9.60;89.80;;;;;;5451150;26;20456;-65
2024/04/20 08:56:20;;;;;;;0.50;0.50;;;9.90;90.90;;;;;;5451531;26;20577;-64
2024/04/20 08:58:46;;;;;;;0.40;0.40;;;10.30;89.20;;;;;;5451285;26;21020;-64
2024/04/20 09:01:16;;;;;;;0.30;0.30;;;10.40;86.60;;;;;;5451029;26;20456;-64
2024/04/20 09:03:42;;;;;;;0.40;0.40;;;10.40;86.30;;;;;;5451225;26;20574;-64
2024/04/20 09:06:10;;;;;;;0.40;0.40;;;10.60;86.70;;;;;;5451170;26;20440;-65
2024/04/20 09:08:37;;;;;;;0.40;0.40;;;10.80;87.20;;;;;;5452321;26;20492;-64
2024/04/20 09:11:03;;;;;;;0.50;0.40;;;10.70;83.60;;;;;;5454848;26;20507;-65
2024/04/20 09:13:28;;;;;;;0.50;0.50;;;10.50;84.00;;;;;;5454930;26;20500;-65
2024/04/20 09:15:54;;;;;;;0.40;0.40;;;10.30;85.50;;;;;;5454613;26;20226;-64
2024/04/20 09:18:20;;;;;;;0.40;0.40;;;10.10;85.30;;;;;;5454910;26;20226;-65
2024/04/20 09:20:50;;;;;;;1.07;0.40;;;9.60;86.30;;;;;;5454678;26;20492;-64
2024/04/20 09:23:21;;;;;;;0.50;0.50;;;9.40;89.00;;;;;;5454472;26;20227;-64
2024/04/20 09:25:53;;;;;;;0.40;0.40;;;9.30;88.50;;;;;;5455024;26;20214;-64
2024/04/20 09:28:19;;;;;;;0.45;0.45;;;9.00;89.20;;;;;;5454915;26;20219;-64
2024/04/20 09:30:51;;;;;;;0.40;0.40;;;8.80;90.10;;;;;;5454556;26;20218;-64
2024/04/20 09:33:17;;;;;;;0.60;0.60;;;8.80;90.40;;;;;;5454870;26;20235;-65
2024/04/20 09:35:43;;;;;;;0.50;0.50;;;8.80;90.20;;;;;;5454809;26;20219;-65
2024/04/20 09:38:09;;;;;;;2.87;0.50;;;9.00;89.60;;;;;;5454555;26;20957;-64
2024/04/20 09:40:36;;;;;;;0.40;0.40;;;9.40;90.30;;;;;;5454272;26;20265;-65
2024/04/20 09:43:02;;;;;;;0.70;0.40;;;9.80;90.00;;;;;;5454186;26;20527;-65
2024/04/20 09:45:29;;;;;;;0.80;0.73;;;10.60;89.50;;;;;;5454444;26;20459;-64
2024/04/20 09:47:59;;;;;;;0.73;0.73;;;11.40;83.40;;;;;;5454311;26;20587;-65
2024/04/20 09:50:28;;;;;;;2.73;0.80;;;11.70;79.80;;;;;;5453895;26;20818;-65
2024/04/20 09:53:01;;;;;;;0.50;0.50;;;12.10;80.50;;;;;;5454606;26;20969;-64
2024/04/20 09:55:28;;;;;;;0.70;0.60;;;12.20;79.30;;;;;;5454501;26;20438;-65
2024/04/20 09:57:55;;;;;;;0.60;0.60;;;12.10;78.90;;;;;;5453720;26;20879;-65
2024/04/20 10:00:22;;;;;;;0.53;0.53;;;11.70;78.90;;;;;;5453757;26;20504;-65
2024/04/20 10:02:48;;;;;;;0.57;0.57;;;11.30;82.60;;;;;;5453823;26;20537;-65
2024/04/20 10:05:15;;;;;;;0.43;0.43;;;10.80;83.10;;;;;;5454404;26;20515;-64
2024/04/20 10:07:46;;;;;;;0.50;0.50;;;10.70;85.30;;;;;;5453676;26;20436;-65
2024/04/20 10:10:15;;;;;;;0.60;0.60;;;10.60;83.60;;;;;;5453699;26;20523;-64
2024/04/20 10:12:43;;;;;;;0.50;0.50;;;10.70;81.80;;;;;;5453639;26;20871;-65
2024/04/20 10:15:09;;;;;;;1.17;0.50;;;11.10;84.80;;;;;;5454300;26;20526;-65
2024/04/20 10:17:35;;;;;;;1.17;0.60;;;11.40;83.70;;;;;;5453660;26;20439;-65
2024/04/20 10:20:01;;;;;;;0.63;0.63;;;11.40;79.40;;;;;;5453194;26;20432;-65
2024/04/20 10:22:27;;;;;;;1.17;0.73;;;11.30;79.10;;;;;;5453501;26;20516;-64
2024/04/20 10:24:54;;;;;;;1.07;0.80;;;10.90;80.70;;;;;;5453947;26;20223;-63
2024/04/20 10:27:27;;;;;;;0.60;0.60;;;10.80;81.20;;;;;;5453492;26;20566;-65
2024/04/20 10:30:06;;;;;;;0.93;0.90;;;11.20;81.30;;;;;;5453694;26;20800;-64
2024/04/20 10:32:31;;;;;;;2.20;1.30;;;11.10;79.80;;;;;;5453605;26;20456;-65
2024/04/20 10:35:07;;;;;;;1.47;1.00;;;10.90;80.30;;;;;;5453774;26;20425;-64
2024/04/20 10:37:35;;;;;;;3.07;1.10;;;11.20;80.70;;;;;;5453219;26;20659;-64
2024/04/20 10:40:11;;;;;;;0.70;0.70;;;11.20;80.60;;;;;;5453478;26;20440;-65
2024/04/20 10:42:37;;;;;;;1.00;1.00;;;11.10;76.60;;;;;;5453413;26;20609;-64
2024/04/20 10:45:06;;;;;;;1.10;1.00;;;10.90;79.00;;;;;;5453707;26;20495;-65
2024/04/20 10:47:35;;;;;;;0.77;0.77;;;10.50;80.00;;;;;;5453505;26;20506;-64
2024/04/20 10:50:00;;;;;;;1.10;0.77;;;10.30;81.80;;;;;;5453479;26;20256;-65
2024/04/20 10:52:27;;;;;;;1.03;0.87;;;10.30;82.20;;;;;;5453376;26;20576;-65
2024/04/20 10:54:53;;;;;;;0.90;0.90;;;10.50;82.60;;;;;;5453793;26;20214;-65
2024/04/20 10:57:20;;;;;;;0.50;0.50;;;10.60;81.80;;;;;;5453931;26;20262;-65
2024/04/20 10:59:46;;;;;;;0.70;0.70;;;10.90;82.60;;;;;;5453050;26;20440;-64
2024/04/20 11:02:14;;;;;;;0.70;0.70;;;11.00;80.30;;;;;;5453228;26;20977;-65
2024/04/20 11:04:43;;;;;;;0.70;0.70;;;10.90;78.90;;;;;;5453480;26;20456;-64
2024/04/20 11:07:09;;;;;;;0.80;0.80;;;10.70;80.60;;;;;;5453360;26;20215;-64
2024/04/20 11:09:37;;;;;;;0.60;0.60;;;10.70;81.40;;;;;;5453279;26;20554;-65
2024/04/20 11:12:04;;;;;;;0.57;0.57;;;10.50;80.00;;;;;;5453186;26;20495;-65
2024/04/20 11:14:32;;;;;;;3.30;0.80;;;10.60;81.10;;;;;;5453134;26;20490;-65
2024/04/20 11:17:00;;;;;;;1.20;1.10;;;10.70;81.90;;;;;;5453254;26;20533;-64
2024/04/20 11:19:26;;;;;;;1.40;0.93;;;10.50;80.40;;;;;;5453346;26;20444;-64
2024/04/20 11:21:52;;;;;;;0.50;0.50;;;9.90;81.80;;;;;;5453274;26;20219;-64
2024/04/20 11:24:19;;;;;;;0.50;0.50;;;9.40;82.30;;;;;;5453277;26;20567;-65
2024/04/20 11:26:45;;;;;;;0.50;0.50;;;8.60;84.20;;;;;;5453200;26;20256;-64
2024/04/20 11:29:12;;;;;;;0.53;0.53;;;8.00;87.00;;;;;;5453414;26;20225;-64
2024/04/20 11:31:38;;;;;;;0.40;0.40;;;7.60;88.50;;;;;;5451817;26;20816;-64
2024/04/20 11:34:03;;;;;;;0.40;0.40;;;7.40;90.30;;;;;;5453602;26;20224;-64
2024/04/20 11:36:31;;;;;;;0.40;0.40;;;7.30;90.70;;;;;;5453263;26;20222;-64
2024/04/20 11:39:11;;;;;;;0.40;0.40;;;7.20;91.30;;;;;;5453172;26;20213;-64
2024/04/20 11:41:36;;;;;;;0.88;0.50;;;7.40;91.30;;;;;;5453068;26;20210;-65
2024/04/20 11:44:04;;;;;;;0.63;0.40;;;7.80;92.00;;;;;;5452945;26;20674;-64
2024/04/20 11:46:30;;;;;;;0.68;0.63;;;8.30;92.80;;;;;;5453158;26;20219;-64
2024/04/20 11:48:55;;;;;;;0.60;0.60;;;8.70;90.60;;;;;;5453268;26;20257;-65
2024/04/20 11:54:18;;;;;;;0.80;0.63;;;9.50;91.20;;;;;;5453246;26;20751;-64
2024/04/20 11:56:44;;;;;;;1.08;0.80;;;9.60;90.50;;;;;;5452598;26;21017;-65
2024/04/20 11:59:13;;;;;;;1.30;1.20;;;9.80;87.50;;;;;;5452567;26;20218;-65
2024/04/20 12:01:40;;;;;;;2.30;2.20;;;9.60;86.00;;;;;;5452482;26;20624;-65
2024/04/20 12:04:08;;;;;;;0.73;0.73;;;9.40;84.80;;;;;;5452875;26;20230;-64
2024/04/20 12:06:33;;;;;;;1.48;0.60;;;9.50;88.60;;;;;;5452529;26;20265;-64
2024/04/20 12:08:59;;;;;;;1.43;1.33;;;9.40;86.20;;;;;;5452626;26;20694;-65
2024/04/20 12:11:26;;;;;;;1.40;0.93;;;9.20;85.20;;;;;;5452365;26;20753;-65
2024/04/20 12:13:51;;;;;;;1.00;0.90;;;9.10;86.20;;;;;;5452565;26;20266;-65
2024/04/20 12:16:17;;;;;;;1.00;1.00;;;9.00;88.50;;;;;;5452970;26;20215;-65
2024/04/20 12:18:44;;;;;;;1.13;1.03;;;8.80;89.00;;;;;;5452785;26;20227;-64
2024/04/20 12:21:13;;;;;;;1.55;1.13;;;8.60;87.50;;;;;;5452294;26;20571;-64
2024/04/20 12:23:39;;;;;;;1.50;1.10;;;8.80;90.20;;;;;;5452005;26;20227;-63
2024/04/20 12:26:07;;;;;;;1.50;1.40;;;9.00;90.00;;;;;;5452438;26;20313;-65
2024/04/20 12:28:32;;;;;;;1.45;1.35;;;9.10;87.50;;;;;;5452427;26;20226;-64
2024/04/20 12:31:00;;;;;;;1.67;1.50;;;9.00;86.40;;;;;;5452101;26;20214;-64
2024/04/20 12:33:29;;;;;;;1.60;1.50;;;8.70;86.70;;;;;;5452568;26;20231;-64
2024/04/20 12:35:54;;;;;;;1.25;1.15;;;8.70;88.00;;;;;;5452317;26;20222;-64
2024/04/20 12:38:22;;;;;;;1.17;1.07;;;8.90;88.60;;;;;;5452574;26;20217;-64
2024/04/20 12:40:48;;;;;;;1.80;1.70;;;9.00;89.10;;;;;;5452004;26;20226;-64
2024/04/20 12:43:14;;;;;;;1.43;1.10;;;9.00;87.30;;;;;;5451769;26;20276;-64
2024/04/20 12:45:40;;;;;;;0.90;0.83;;;9.00;86.00;;;;;;5451973;26;20613;-64
2024/04/20 12:48:06;;;;;;;1.73;1.60;;;9.00;86.90;;;;;;5451905;26;20558;-65
2024/04/20 12:50:31;;;;;;;2.10;1.40;;;8.80;87.60;;;;;;5452052;26;20577;-64
2024/04/20 12:52:57;;;;;;;0.80;0.70;;;8.60;89.40;;;;;;5452176;26;20233;-64